Time;durP1;ratioP1;P1;durP2;ratioP2;P2;SDS_P1;SDS_P2;PMS_P1;PMS_P2;Temp;Humidity;BMP_temperature;BMP_pressure;BME280_temperature;BME280_humidity;BME280_pressure;Samples;Min_cycle;Max_cycle;Signal;HPM_P1;HPM_P2
2021/07/20 00:00:18;;;;;;;18.20;10.02;;;;;;;21.05;77.79;101436.63;5008315;28;20032;-84
2021/07/20 00:02:48;;;;;;;17.00;10.02;;;;;;;20.95;78.29;101448.09;5006128;28;20037;-82
2021/07/20 00:05:20;;;;;;;14.20;9.95;;;;;;;20.84;78.81;101441.50;5007956;28;20026;-83
2021/07/20 00:07:47;;;;;;;18.98;9.35;;;;;;;20.84;78.97;101441.50;5008277;28;20092;-82
2021/07/20 00:10:17;;;;;;;17.25;8.55;;;;;;;20.79;78.82;101444.06;5003632;28;20087;-81
2021/07/20 00:12:43;;;;;;;21.45;9.50;;;;;;;20.82;78.12;101442.78;5024239;28;20037;-80
2021/07/20 00:15:11;;;;;;;17.60;9.00;;;;;;;20.90;77.80;101452.59;5017177;28;20026;-84
2021/07/20 00:17:40;;;;;;;14.35;9.02;;;;;;;20.95;77.73;101442.63;4989865;28;20740;-81
2021/07/20 00:20:06;;;;;;;16.95;9.35;;;;;;;20.99;77.51;101443.84;5010964;28;20038;-81
2021/07/20 00:22:32;;;;;;;16.25;8.45;;;;;;;20.80;77.90;101451.22;4994993;28;20053;-84
2021/07/20 00:24:57;;;;;;;18.85;9.05;;;;;;;20.84;78.01;101449.69;4994510;28;20064;-80
2021/07/20 00:27:23;;;;;;;19.52;9.57;;;;;;;20.77;77.44;101437.16;4996488;28;20109;-83
2021/07/20 00:29:48;;;;;;;17.17;9.27;;;;;;;20.78;77.79;101441.59;5006913;28;20064;-81
2021/07/20 00:32:14;;;;;;;14.75;9.43;;;;;;;20.63;78.31;101429.09;5010790;28;20032;-83
2021/07/20 00:34:40;;;;;;;16.00;9.35;;;;;;;20.57;78.45;101429.19;5010282;28;20022;-81
2021/07/20 00:37:06;;;;;;;17.77;9.18;;;;;;;20.44;79.52;101421.94;5013772;28;20035;-79
2021/07/20 00:39:32;;;;;;;19.35;9.10;;;;;;;20.55;79.07;101440.34;4995502;28;20048;-81
2021/07/20 00:41:57;;;;;;;14.95;8.10;;;;;;;20.47;79.05;101432.41;4994480;28;20065;-82
2021/07/20 00:44:23;;;;;;;11.20;6.90;;;;;;;20.42;78.20;101427.59;5018302;28;20088;-82
2021/07/20 00:46:48;;;;;;;18.50;9.35;;;;;;;20.37;78.41;101426.59;4996992;28;20977;-83
2021/07/20 00:49:14;;;;;;;13.82;8.20;;;;;;;20.35;79.12;101426.00;4994972;28;20017;-82
2021/07/20 00:51:39;;;;;;;17.92;9.55;;;;;;;20.36;78.92;101428.50;5009902;28;20558;-84
2021/07/20 00:54:05;;;;;;;16.15;7.47;;;;;;;20.26;78.46;101432.81;5009564;28;20029;-81
2021/07/20 00:56:32;;;;;;;12.15;7.15;;;;;;;20.27;78.07;101440.78;5015261;28;20038;-83
2021/07/20 00:58:58;;;;;;;9.95;6.18;;;;;;;20.25;77.17;101437.44;5011529;28;20026;-82
2021/07/20 01:01:24;;;;;;;13.48;7.40;;;;;;;20.16;76.85;101425.97;5007427;28;20018;-84
2021/07/20 01:03:50;;;;;;;13.05;6.88;;;;;;;20.12;77.04;101434.81;4998651;28;20845;-80
2021/07/20 01:06:18;;;;;;;14.98;9.25;;;;;;;20.18;77.44;101434.75;4994362;28;20997;-79
2021/07/20 01:08:44;;;;;;;18.55;10.63;;;;;;;20.21;78.14;101431.56;5001493;28;20129;-82
2021/07/20 01:11:10;;;;;;;17.48;8.55;;;;;;;20.18;78.21;101432.03;5005975;28;20627;-82
2021/07/20 01:13:36;;;;;;;15.57;8.82;;;;;;;20.19;79.24;101439.19;5023283;28;20033;-83
2021/07/20 01:16:02;;;;;;;17.92;9.10;;;;;;;20.12;79.32;101427.47;4994020;28;20571;-82
2021/07/20 01:18:28;;;;;;;16.83;8.90;;;;;;;20.06;79.04;101425.63;4992842;28;20510;-81
2021/07/20 01:20:54;;;;;;;15.00;8.65;;;;;;;20.06;79.19;101427.50;4993063;28;20151;-82
2021/07/20 01:23:33;;;;;;;14.73;7.80;;;;;;;20.09;78.72;101429.81;4994733;28;20650;-81
2021/07/20 01:25:59;;;;;;;8.35;6.15;;;;;;;20.09;76.46;101435.28;4992819;28;20049;-82
2021/07/20 01:28:25;;;;;;;11.23;6.18;;;;;;;20.01;75.07;101433.66;4992533;28;20022;-84
2021/07/20 01:30:56;;;;;;;11.60;5.90;;;;;;;19.85;75.17;101426.84;5005565;28;20026;-82
2021/07/20 01:33:22;;;;;;;9.43;6.45;;;;;;;19.81;75.30;101430.22;5007268;28;20109;-83
2021/07/20 01:35:51;;;;;;;12.65;6.97;;;;;;;19.77;75.71;101430.69;4990685;28;20037;-82
2021/07/20 01:38:18;;;;;;;9.13;5.75;;;;;;;19.81;75.23;101435.69;5002897;28;20036;-81
2021/07/20 01:40:44;;;;;;;7.38;5.63;;;;;;;19.75;75.28;101421.03;5020304;28;20022;-82
2021/07/20 01:43:11;;;;;;;9.77;6.10;;;;;;;19.67;74.94;101422.13;5008266;28;20029;-83
2021/07/20 01:45:38;;;;;;;9.57;5.70;;;;;;;19.68;75.37;101425.69;5005975;28;20052;-83
2021/07/20 01:48:05;;;;;;;9.98;5.88;;;;;;;19.60;75.62;101436.84;5005389;28;20060;-82
2021/07/20 01:50:32;;;;;;;7.93;5.32;;;;;;;19.61;76.17;101433.03;5010317;28;20030;-81
2021/07/20 01:52:57;;;;;;;9.20;5.47;;;;;;;19.49;76.19;101419.28;5017346;28;20038;-83
2021/07/20 01:55:25;;;;;;;13.35;7.78;;;;;;;19.39;77.18;101427.09;5012711;28;20476;-83
2021/07/20 01:57:51;;;;;;;18.25;8.65;;;;;;;19.44;79.00;101433.56;4992913;28;20026;-82
2021/07/20 02:00:18;;;;;;;18.65;9.68;;;;;;;19.49;80.00;101428.28;5008792;28;20513;-83
2021/07/20 02:10:50;;;;;;;23.02;10.27;;;;;;;19.50;80.91;101426.38;5007653;28;20037;-82
2021/07/20 02:13:16;;;;;;;30.13;9.80;;;;;;;19.39;81.39;101416.19;5006405;28;20108;-82
2021/07/20 02:15:42;;;;;;;29.30;10.40;;;;;;;19.43;81.84;101423.72;5005445;28;20017;-83
2021/07/20 02:18:09;;;;;;;45.33;9.93;;;;;;;19.40;82.07;101434.25;5004836;28;20030;-82
2021/07/20 02:20:38;;;;;;;30.55;10.50;;;;;;;19.30;82.65;101416.44;4993926;28;20018;-81
2021/07/20 02:23:04;;;;;;;27.42;10.30;;;;;;;19.37;82.69;101416.41;5012239;28;20025;-83
2021/07/20 02:25:30;;;;;;;19.92;8.43;;;;;;;19.40;82.38;101426.06;5007301;28;20180;-84
2021/07/20 02:27:56;;;;;;;16.30;8.77;;;;;;;19.42;81.14;101421.19;4990180;28;20120;-82
2021/07/20 02:30:21;;;;;;;14.60;8.27;;;;;;;19.47;80.58;101429.56;4991402;28;20403;-81
2021/07/20 02:32:47;;;;;;;17.23;8.15;;;;;;;19.63;80.22;101433.66;5007483;28;20088;-82
2021/07/20 02:35:19;;;;;;;16.50;7.80;;;;;;;19.31;79.45;101400.91;5013870;28;20033;-83
2021/07/20 02:37:44;;;;;;;15.05;8.02;;;;;;;19.43;78.57;101426.44;4996366;28;20055;-82
2021/07/20 02:40:11;;;;;;;18.63;7.80;;;;;;;19.46;78.35;101436.91;4995481;28;20045;-82
2021/07/20 02:42:37;;;;;;;15.32;7.60;;;;;;;19.37;78.33;101429.19;5012404;28;20021;-82
2021/07/20 02:45:06;;;;;;;15.18;7.85;;;;;;;19.23;78.97;101434.72;4995754;28;20573;-83
2021/07/20 02:47:33;;;;;;;18.38;8.25;;;;;;;19.10;79.80;101430.19;5005125;28;20080;-83
2021/07/20 02:49:58;;;;;;;17.48;7.95;;;;;;;19.14;80.57;101429.75;5002090;28;20064;-82
2021/07/20 02:52:27;;;;;;;19.58;8.18;;;;;;;19.19;81.05;101438.94;5005684;28;20487;-82
2021/07/20 02:54:55;;;;;;;37.15;7.53;;;;;;;19.13;81.50;101420.69;5006106;28;20022;-81
2021/07/20 02:57:20;;;;;;;19.15;8.75;;;;;;;19.01;81.24;101414.28;5009586;28;20326;-81
2021/07/20 02:59:47;;;;;;;16.05;8.32;;;;;;;18.93;81.36;101430.88;5008084;28;20076;-82
2021/07/20 03:02:13;;;;;;;19.25;7.85;;;;;;;18.78;81.38;101431.94;4995463;28;20057;-82
2021/07/20 03:04:39;;;;;;;17.35;8.98;;;;;;;18.70;81.84;101434.88;5007920;28;20026;-82
2021/07/20 03:07:09;;;;;;;23.52;9.68;;;;;;;18.80;81.13;101431.75;5008264;28;20033;-82
2021/07/20 03:09:35;;;;;;;20.52;9.20;;;;;;;18.79;81.51;101438.25;5009436;28;20444;-82
2021/07/20 03:12:09;;;;;;;17.52;9.80;;;;;;;18.84;81.75;101444.72;5018776;28;20025;-82
2021/07/20 03:14:36;;;;;;;18.95;9.13;;;;;;;18.78;82.20;101439.28;4998845;28;20061;-83
2021/07/20 03:17:02;;;;;;;19.00;8.82;;;;;;;18.68;82.28;101426.06;5005722;28;20116;-83
2021/07/20 03:19:28;;;;;;;17.75;9.02;;;;;;;18.48;83.10;101414.41;4990214;28;20030;-83
2021/07/20 03:21:56;;;;;;;20.55;10.90;;;;;;;18.78;82.86;101448.28;4990378;28;20041;-83
2021/07/20 03:24:22;;;;;;;17.27;9.18;;;;;;;18.97;82.37;101434.81;5006453;28;20049;-83
2021/07/20 03:26:48;;;;;;;16.77;9.35;;;;;;;18.98;82.41;101423.72;4992760;28;20064;-82
2021/07/20 03:29:14;;;;;;;16.25;8.75;;;;;;;19.04;82.25;101432.91;5005261;28;20743;-82
2021/07/20 03:31:40;;;;;;;16.85;8.93;;;;;;;18.98;82.64;101431.06;5003134;28;20037;-81
2021/07/20 03:34:06;;;;;;;17.13;8.80;;;;;;;18.83;82.97;101425.84;5009869;28;20030;-81
2021/07/20 03:36:33;;;;;;;21.35;9.88;;;;;;;18.88;82.76;101435.06;4990646;28;20099;-83
2021/07/20 03:38:59;;;;;;;43.42;10.40;;;;;;;19.03;82.42;101433.97;4996431;28;20093;-80
2021/07/20 03:41:26;;;;;;;31.40;8.65;;;;;;;18.99;82.34;101432.72;5007373;28;21024;-79
2021/07/20 03:43:52;;;;;;;38.67;9.90;;;;;;;18.85;83.44;101438.22;5023533;28;20079;-84
2021/07/20 03:46:18;;;;;;;36.10;10.00;;;;;;;18.75;83.83;101432.38;5009343;28;20065;-82
2021/07/20 03:48:43;;;;;;;25.17;10.82;;;;;;;18.81;84.41;101431.50;5004927;28;20057;-80
2021/07/20 03:51:10;;;;;;;43.03;9.95;;;;;;;18.89;84.09;101436.75;5008238;28;20041;-81
2021/07/20 03:53:36;;;;;;;44.80;9.93;;;;;;;18.87;83.70;101435.28;4991787;28;20112;-82
2021/07/20 03:56:04;;;;;;;31.83;9.85;;;;;;;18.87;83.76;101441.56;5004357;28;20164;-83
2021/07/20 03:58:29;;;;;;;28.02;10.27;;;;;;;18.84;84.28;101436.56;5012027;28;20490;-80
2021/07/20 04:00:58;;;;;;;33.40;10.80;;;;;;;18.80;84.17;101431.75;5014466;28;20615;-81
2021/07/20 04:03:24;;;;;;;28.10;10.75;;;;;;;18.78;84.47;101425.66;4993898;28;20036;-83
2021/07/20 04:05:56;;;;;;;25.10;11.63;;;;;;;18.91;84.53;101435.69;5010271;28;20037;-82
2021/07/20 04:08:23;;;;;;;34.40;10.77;;;;;;;18.95;84.32;101432.31;5008503;28;20033;-82
2021/07/20 04:10:50;;;;;;;35.70;11.88;;;;;;;18.94;83.56;101419.72;5014362;28;20041;-82
2021/07/20 04:13:16;;;;;;;24.63;9.77;;;;;;;18.89;83.63;101414.94;4994081;28;20396;-81
2021/07/20 04:15:46;;;;;;;33.70;8.70;;;;;;;19.00;83.28;101432.53;5023529;28;20493;-82
2021/07/20 04:18:13;;;;;;;16.10;8.77;;;;;;;18.93;83.56;101428.16;5007122;28;20030;-82
2021/07/20 04:20:38;;;;;;;19.27;6.53;;;;;;;18.93;82.72;101428.97;5014693;28;20037;-82
2021/07/20 04:23:06;;;;;;;8.15;5.45;;;;;;;18.92;82.64;101429.19;5015882;28;20026;-82
2021/07/20 04:25:34;;;;;;;8.10;5.55;;;;;;;18.94;82.88;101429.81;5001415;28;20033;-83
2021/07/20 04:27:59;;;;;;;21.58;6.70;;;;;;;18.81;81.99;101411.59;5006839;28;20365;-81
2021/07/20 04:30:25;;;;;;;12.32;6.30;;;;;;;18.70;82.66;101418.53;4999912;28;20795;-81
2021/07/20 04:32:52;;;;;;;22.58;6.25;;;;;;;18.65;83.06;101431.94;5019117;28;20025;-82
2021/07/20 04:35:18;;;;;;;19.77;6.40;;;;;;;18.66;82.87;101428.19;4998570;28;20033;-82
2021/07/20 04:37:44;;;;;;;13.45;5.97;;;;;;;18.62;82.95;101432.38;4996409;28;20806;-81
2021/07/20 04:40:11;;;;;;;15.70;5.75;;;;;;;18.56;83.17;101427.78;4998836;28;20029;-82
2021/07/20 04:42:37;;;;;;;18.98;6.28;;;;;;;18.56;82.91;101438.69;5014482;28;20049;-82
2021/07/20 04:45:03;;;;;;;9.93;5.75;;;;;;;18.38;83.35;101412.09;5025220;28;20049;-82
2021/07/20 04:47:29;;;;;;;18.40;7.00;;;;;;;18.44;83.59;101419.41;5015253;28;20022;-81
2021/07/20 04:49:55;;;;;;;12.35;6.72;;;;;;;18.57;83.83;101432.16;5012947;28;20018;-81
2021/07/20 04:52:20;;;;;;;10.50;6.68;;;;;;;18.65;83.60;101440.13;5000983;28;20040;-81
2021/07/20 04:54:46;;;;;;;12.13;6.78;;;;;;;18.63;83.67;101429.44;5015605;28;20384;-81
2021/07/20 04:57:11;;;;;;;10.63;6.30;;;;;;;18.72;83.29;101435.50;5015485;28;20043;-81
2021/07/20 04:59:38;;;;;;;15.25;6.97;;;;;;;18.76;83.17;101439.53;5013715;28;21582;-82
2021/07/20 05:02:05;;;;;;;19.27;7.70;;;;;;;18.77;83.34;101440.34;5000077;28;20025;-82
2021/07/20 05:04:31;;;;;;;13.52;6.80;;;;;;;18.77;83.65;101451.25;5005144;28;20026;-81
2021/07/20 05:06:57;;;;;;;17.98;7.30;;;;;;;18.75;83.30;101448.72;5019590;28;20026;-81
2021/07/20 05:09:23;;;;;;;11.63;6.78;;;;;;;18.84;83.57;101452.03;4993147;28;20623;-83
2021/07/20 05:11:49;;;;;;;14.98;6.72;;;;;;;18.87;82.88;101448.91;5009639;28;20482;-81
2021/07/20 05:14:18;;;;;;;12.80;6.28;;;;;;;18.87;83.29;101447.03;4992587;28;20021;-80
2021/07/20 05:16:43;;;;;;;19.33;6.82;;;;;;;18.94;83.19;101457.88;5010753;28;20109;-80
2021/07/20 05:19:10;;;;;;;14.70;6.65;;;;;;;18.92;82.86;101459.16;5011932;28;20045;-85
2021/07/20 05:21:37;;;;;;;15.70;7.38;;;;;;;18.96;83.09;101452.25;5011986;28;20061;-78
2021/07/20 05:24:03;;;;;;;15.25;7.63;;;;;;;18.92;83.50;101457.28;5011782;28;20032;-83
2021/07/20 05:26:28;;;;;;;17.85;7.10;;;;;;;18.75;83.75;101448.72;4995256;28;20045;-79
2021/07/20 05:28:55;;;;;;;15.25;8.27;;;;;;;18.79;83.95;101460.88;5009710;28;20033;-81
2021/07/20 05:31:20;;;;;;;17.50;7.47;;;;;;;18.82;83.70;101455.00;4992419;28;20499;-82
2021/07/20 05:33:48;;;;;;;18.45;7.35;;;;;;;18.85;83.98;101443.66;5006905;28;20817;-83
2021/07/20 05:36:15;;;;;;;21.20;7.70;;;;;;;18.73;84.60;101441.78;4992206;28;20025;-83
2021/07/20 05:38:40;;;;;;;16.15;7.20;;;;;;;18.71;84.86;101449.31;5008664;28;20022;-81
2021/07/20 05:41:06;;;;;;;12.35;6.38;;;;;;;18.69;84.63;101438.66;5007288;28;20022;-81
2021/07/20 05:43:33;;;;;;;15.93;7.55;;;;;;;18.60;84.91;101456.25;5005528;28;20037;-83
2021/07/20 05:46:00;;;;;;;23.88;8.27;;;;;;;18.66;84.70;101450.81;5009530;28;20060;-83
2021/07/20 05:48:26;;;;;;;13.48;7.38;;;;;;;18.73;84.90;101458.94;5024215;28;20018;-83
2021/07/20 05:50:53;;;;;;;13.10;6.70;;;;;;;18.62;85.49;101451.44;5013129;28;20035;-82
2021/07/20 05:53:20;;;;;;;15.45;6.70;;;;;;;18.71;85.25;101463.81;5015605;28;20144;-81
2021/07/20 05:55:50;;;;;;;16.20;7.22;;;;;;;18.80;84.59;101451.66;4992150;28;20026;-82
2021/07/20 05:58:18;;;;;;;18.05;7.57;;;;;;;18.86;84.43;101439.88;5023606;28;20061;-82
2021/07/20 06:00:43;;;;;;;10.50;6.38;;;;;;;18.86;84.33;101445.34;5008956;28;20033;-81
2021/07/20 06:03:14;;;;;;;10.95;6.03;;;;;;;18.92;84.35;101454.56;4995818;28;20033;-82
2021/07/20 06:05:41;;;;;;;12.88;5.85;;;;;;;18.86;84.82;101456.22;5025620;28;20017;-82
2021/07/20 06:08:07;;;;;;;11.70;6.20;;;;;;;18.77;85.38;101462.97;4992359;28;20030;-82
2021/07/20 06:10:33;;;;;;;15.48;6.22;;;;;;;18.79;85.04;101466.31;5011035;28;20037;-82
2021/07/20 06:12:58;;;;;;;17.20;5.35;;;;;;;18.85;85.11;101453.75;5013926;28;20030;-83
2021/07/20 06:15:24;;;;;;;15.57;6.38;;;;;;;18.85;84.68;101446.38;5010810;28;20041;-83
2021/07/20 06:17:51;;;;;;;12.32;6.00;;;;;;;18.93;84.28;101464.41;5007565;28;20057;-82
2021/07/20 06:20:17;;;;;;;14.00;5.82;;;;;;;18.87;84.27;101479.72;5012117;28;20035;-82
2021/07/20 06:22:50;;;;;;;19.35;8.30;;;;;;;18.78;84.51;101469.25;4989875;28;20061;-83
2021/07/20 06:25:16;;;;;;;14.98;7.55;;;;;;;18.79;84.68;101465.50;4990542;28;20092;-82
2021/07/20 06:27:43;;;;;;;18.27;6.80;;;;;;;18.86;84.41;101466.28;4988617;28;20087;-80
2021/07/20 06:30:10;;;;;;;13.68;7.03;;;;;;;18.79;84.57;101458.16;4994694;28;20033;-79
2021/07/20 06:32:36;;;;;;;15.05;7.07;;;;;;;18.82;84.93;101471.34;5008607;28;20036;-84
2021/07/20 06:35:01;;;;;;;13.13;7.20;;;;;;;18.82;84.99;101476.78;5005593;28;20029;-82
2021/07/20 06:37:27;;;;;;;14.73;7.88;;;;;;;18.78;85.09;101469.25;4991501;28;20033;-82
2021/07/20 06:39:53;;;;;;;13.82;8.05;;;;;;;18.97;84.76;101472.97;5006226;28;20022;-82
2021/07/20 06:42:19;;;;;;;13.05;8.10;;;;;;;19.13;84.23;101472.50;5001452;28;20554;-83
2021/07/20 06:44:45;;;;;;;16.30;9.05;;;;;;;19.10;84.29;101464.75;5022248;28;20030;-81
2021/07/20 06:47:15;;;;;;;17.98;9.30;;;;;;;19.14;84.48;101473.34;5010461;28;20022;-81
2021/07/20 06:49:43;;;;;;;18.23;9.13;;;;;;;18.97;84.36;101446.56;5010361;28;20026;-82
2021/07/20 06:52:08;;;;;;;17.80;9.48;;;;;;;19.02;84.49;101449.47;5007270;28;20030;-83
2021/07/20 06:54:34;;;;;;;20.35;10.90;;;;;;;19.01;84.45;101438.81;5007275;28;20029;-84
2021/07/20 06:57:02;;;;;;;16.08;9.23;;;;;;;19.11;84.20;101445.47;5007347;28;20021;-84
2021/07/20 06:59:29;;;;;;;24.08;11.23;;;;;;;19.21;84.29;101445.03;5007707;28;20049;-81
2021/07/20 07:01:57;;;;;;;23.20;12.30;;;;;;;19.59;83.58;101476.94;5022691;28;20032;-82
2021/07/20 07:04:26;;;;;;;24.27;12.13;;;;;;;19.68;83.10;101477.53;4994267;28;20028;-82
2021/07/20 07:06:53;;;;;;;31.20;14.52;;;;;;;19.50;82.82;101459.13;5002239;28;20033;-83
2021/07/20 07:09:20;;;;;;;30.67;14.00;;;;;;;19.73;82.37;101475.81;5005523;28;20065;-79
2021/07/20 07:11:47;;;;;;;31.35;14.60;;;;;;;19.79;82.25;101481.44;5005480;28;20033;-78
2021/07/20 07:14:12;;;;;;;33.53;16.27;;;;;;;19.74;82.47;101472.03;5009107;28;20033;-80
2021/07/20 07:16:41;;;;;;;35.35;16.52;;;;;;;19.85;82.29;101484.16;5009335;28;20432;-80
2021/07/20 07:19:08;;;;;;;37.97;18.30;;;;;;;19.93;82.28;101480.31;4989561;28;20030;-80
2021/07/20 07:21:34;;;;;;;40.67;18.40;;;;;;;20.01;82.08;101481.97;5004782;28;20026;-79
2021/07/20 07:24:00;;;;;;;43.95;20.88;;;;;;;20.05;82.02;101483.19;5007307;28;20089;-79
2021/07/20 07:26:26;;;;;;;38.67;19.10;;;;;;;20.00;82.04;101483.81;5007521;28;20028;-79
2021/07/20 07:28:52;;;;;;;50.38;21.35;;;;;;;20.10;82.20;101495.09;5003805;28;20025;-79
2021/07/20 07:31:19;;;;;;;44.75;21.88;;;;;;;20.13;82.00;101491.91;5009995;28;20033;-78
2021/07/20 07:33:45;;;;;;;41.90;20.77;;;;;;;20.32;81.39;101492.00;5009736;28;20026;-78
2021/07/20 07:36:11;;;;;;;42.22;19.88;;;;;;;20.52;80.62;101480.91;5011297;28;20022;-79
2021/07/20 07:38:39;;;;;;;41.17;18.38;;;;;;;20.84;79.84;101495.31;5014183;28;20022;-79
2021/07/20 07:41:05;;;;;;;46.83;21.58;;;;;;;21.04;79.04;101498.69;5013023;28;20432;-78
2021/07/20 07:43:31;;;;;;;35.45;19.63;;;;;;;21.13;78.08;101487.44;5018669;28;20030;-79
2021/07/20 07:45:57;;;;;;;42.50;21.25;;;;;;;21.06;78.01;101491.09;5018982;28;20049;-80
2021/07/20 07:48:26;;;;;;;42.45;20.88;;;;;;;20.92;78.59;101495.03;5019047;28;20068;-78
2021/07/20 07:50:55;;;;;;;38.67;20.05;;;;;;;20.99;78.42;101484.03;5017348;28;20026;-76
2021/07/20 07:53:21;;;;;;;40.50;20.67;;;;;;;21.04;77.79;101482.28;5009925;28;20018;-82
2021/07/20 07:55:47;;;;;;;43.15;21.52;;;;;;;20.99;78.36;101484.88;4995805;28;20033;-83
2021/07/20 07:58:13;;;;;;;36.25;21.02;;;;;;;20.99;78.38;101487.59;5009446;28;20026;-77
2021/07/20 08:00:39;;;;;;;34.88;18.48;;;;;;;21.17;78.19;101489.50;5002845;28;20082;-77
2021/07/20 08:03:07;;;;;;;37.67;19.73;;;;;;;21.41;77.89;101495.16;5005064;28;20107;-76
2021/07/20 08:05:32;;;;;;;41.47;20.98;;;;;;;21.44;77.27;101484.56;5009900;28;20029;-77
2021/07/20 08:07:58;;;;;;;37.17;19.30;;;;;;;21.54;77.41;101500.44;5008498;28;20041;-77
2021/07/20 08:10:25;;;;;;;39.33;19.77;;;;;;;21.64;77.54;101497.97;5011127;28;20018;-77
2021/07/20 08:12:51;;;;;;;34.03;19.45;;;;;;;21.68;76.91;101506.56;5007793;28;20029;-75
2021/07/20 08:15:18;;;;;;;33.95;19.73;;;;;;;21.61;76.82;101501.16;5016728;28;20121;-76
2021/07/20 08:17:43;;;;;;;36.30;20.13;;;;;;;21.59;77.35;101497.00;5005583;28;20216;-77
2021/07/20 08:20:11;;;;;;;29.98;17.15;;;;;;;21.76;76.98;101495.28;5005644;28;20025;-77
2021/07/20 08:22:37;;;;;;;26.90;15.73;;;;;;;21.98;76.60;101500.25;4996746;28;20443;-77
2021/07/20 08:25:07;;;;;;;29.23;16.65;;;;;;;22.17;75.93;101496.34;5007387;28;20464;-77
2021/07/20 08:27:40;;;;;;;25.50;15.57;;;;;;;22.30;75.48;101511.78;4998040;28;20037;-76
2021/07/20 08:30:06;;;;;;;30.30;16.25;;;;;;;22.40;74.41;101501.06;5007383;28;20646;-77
2021/07/20 08:32:36;;;;;;;29.95;16.13;;;;;;;22.54;73.57;101501.69;5001975;28;20492;-76
2021/07/20 08:35:06;;;;;;;27.40;14.98;;;;;;;22.67;73.46;101506.91;5004067;28;20034;-76
2021/07/20 08:37:34;;;;;;;29.60;16.30;;;;;;;22.82;73.41;101503.72;5003999;28;20061;-76
2021/07/20 08:40:13;;;;;;;25.80;15.15;;;;;;;23.00;71.79;101502.78;5008938;28;20037;-77
2021/07/20 08:42:51;;;;;;;24.05;15.68;;;;;;;23.20;71.22;101507.84;5007216;28;20488;-75
2021/07/20 08:45:22;;;;;;;21.45;14.68;;;;;;;23.31;69.54;101511.66;5004253;28;20026;-76
2021/07/20 08:47:51;;;;;;;19.67;12.95;;;;;;;23.40;68.55;101515.69;5017081;28;20079;-76
2021/07/20 08:50:17;;;;;;;24.17;14.18;;;;;;;23.40;68.04;101513.78;5005391;28;20041;-75
2021/07/20 08:52:51;;;;;;;26.25;14.48;;;;;;;23.51;67.19;101503.84;5009691;28;20543;-77
2021/07/20 08:55:20;;;;;;;28.38;13.85;;;;;;;23.67;67.52;101513.22;5008201;28;20485;-77
2021/07/20 08:57:50;;;;;;;26.00;15.20;;;;;;;23.69;67.12;101506.41;4991937;28;20125;-75
2021/07/20 09:00:19;;;;;;;20.67;13.07;;;;;;;23.91;66.64;101505.72;5001599;28;20021;-77
2021/07/20 09:03:13;;;;;;;19.33;12.20;;;;;;;24.06;65.38;101505.19;5008508;28;20380;-76
2021/07/20 09:05:50;;;;;;;19.35;12.25;;;;;;;24.20;65.21;101505.69;4999956;28;20026;-76
2021/07/20 09:08:44;;;;;;;19.95;12.52;;;;;;;24.32;64.95;101506.47;5004111;28;20069;-76
2021/07/20 09:11:27;;;;;;;20.88;13.13;;;;;;;24.41;64.67;101496.69;4991909;28;20467;-76
2021/07/20 09:13:54;;;;;;;23.27;13.77;;;;;;;24.61;63.83;101495.38;5003215;28;20029;-77
2021/07/20 09:16:41;;;;;;;20.67;12.75;;;;;;;24.94;63.05;101500.00;4990726;28;20113;-77
2021/07/20 09:19:58;;;;;;;19.77;11.95;;;;;;;24.97;62.61;101496.72;5004681;28;20057;-74
2021/07/20 09:22:40;;;;;;;22.45;13.23;;;;;;;24.92;61.49;101491.97;5014660;28;20050;-76
2021/07/20 09:25:14;;;;;;;24.27;13.30;;;;;;;24.89;61.08;101487.00;5005632;28;20025;-76
2021/07/20 09:27:46;;;;;;;18.70;10.88;;;;;;;25.08;60.67;101495.78;5021644;28;20083;-76
2021/07/20 09:30:17;;;;;;;21.92;12.65;;;;;;;25.19;60.28;101485.75;5006887;28;20037;-76
2021/07/20 09:33:11;;;;;;;18.95;12.98;;;;;;;25.30;59.92;101493.06;5006964;28;20368;-76
2021/07/20 09:35:51;;;;;;;21.20;12.77;;;;;;;25.37;59.85;101487.34;5000497;28;20095;-75
2021/07/20 09:38:28;;;;;;;22.27;13.35;;;;;;;25.53;60.54;101486.44;4999473;28;20022;-77
2021/07/20 09:41:28;;;;;;;21.10;12.35;;;;;;;25.78;59.27;101493.34;5004556;28;20092;-77
2021/07/20 09:44:31;;;;;;;21.75;13.10;;;;;;;25.72;58.90;101486.94;4989266;28;20048;-77
2021/07/20 09:47:35;;;;;;;19.65;12.20;;;;;;;25.80;58.18;101491.97;5007833;28;20048;-77
2021/07/20 09:50:10;;;;;;;18.30;13.13;;;;;;;26.00;58.36;101493.28;5000845;28;20030;-77
2021/07/20 09:52:39;;;;;;;18.92;11.60;;;;;;;25.97;57.43;101491.06;5015703;28;20117;-77
2021/07/20 09:55:35;;;;;;;17.50;11.55;;;;;;;26.18;58.25;101494.84;5004962;28;20075;-77
2021/07/20 09:58:01;;;;;;;20.60;12.40;;;;;;;26.39;58.04;101498.59;5020914;28;20031;-76
2021/07/20 10:00:48;;;;;;;17.42;11.55;;;;;;;26.49;57.51;101499.50;5007441;28;20034;-76
2021/07/20 10:03:19;;;;;;;18.50;11.52;;;;;;;26.59;56.33;101496.00;5006558;28;20029;-76
2021/07/20 10:05:56;;;;;;;17.50;9.97;;;;;;;26.81;56.05;101492.31;5004041;28;20034;-76
2021/07/20 10:08:35;;;;;;;15.30;10.98;;;;;;;26.95;55.87;101479.66;5007448;28;20034;-77
2021/07/20 10:11:22;;;;;;;19.63;11.70;;;;;;;27.02;55.63;101483.03;4997142;28;20049;-76
2021/07/20 10:14:09;;;;;;;20.15;12.15;;;;;;;27.22;54.94;101489.75;4995372;28;20113;-76
2021/07/20 10:16:48;;;;;;;17.77;11.93;;;;;;;27.40;53.83;101475.47;5006243;28;20113;-76
2021/07/20 10:19:24;;;;;;;20.40;10.30;;;;;;;27.53;54.04;101474.13;5006953;28;20123;-77
2021/07/20 10:21:51;;;;;;;17.67;10.50;;;;;;;27.60;54.19;101486.59;5005080;28;20041;-76
2021/07/20 10:24:23;;;;;;;14.95;11.05;;;;;;;27.59;53.36;101484.91;5001398;28;20107;-75
2021/07/20 10:27:08;;;;;;;16.02;11.15;;;;;;;27.66;53.16;101489.38;5002830;28;20029;-76
2021/07/20 10:29:53;;;;;;;14.13;10.93;;;;;;;27.71;52.91;101487.44;5005251;28;20030;-77
2021/07/20 10:33:10;;;;;;;16.67;10.82;;;;;;;27.82;52.54;101488.31;5004426;28;20044;-76
2021/07/20 10:35:50;;;;;;;16.58;10.90;;;;;;;27.79;52.31;101480.53;5018829;28;20030;-77
2021/07/20 10:38:20;;;;;;;18.52;11.05;;;;;;;27.87;52.06;101488.31;4998064;28;20026;-77
2021/07/20 10:40:48;;;;;;;16.95;10.60;;;;;;;28.03;52.72;101494.69;5002896;28;20033;-77
2021/07/20 10:43:32;;;;;;;15.50;11.27;;;;;;;28.14;51.59;101487.25;5002861;28;20038;-76
2021/07/20 10:45:59;;;;;;;15.43;10.82;;;;;;;28.15;50.71;101475.06;4995631;28;20458;-76
2021/07/20 10:48:33;;;;;;;17.40;10.52;;;;;;;28.35;50.22;101477.81;4996936;28;20026;-76
2021/07/20 10:51:12;;;;;;;15.45;9.85;;;;;;;28.44;49.75;101476.16;5005729;28;20500;-76
2021/07/20 10:54:03;;;;;;;15.48;10.70;;;;;;;28.62;49.12;101476.72;4995776;28;20056;-76
2021/07/20 10:56:43;;;;;;;15.38;10.00;;;;;;;28.66;48.60;101473.13;5004920;28;20022;-76
2021/07/20 10:59:36;;;;;;;13.65;9.23;;;;;;;28.70;49.14;101470.59;5000509;28;20133;-76
2021/07/20 11:02:08;;;;;;;13.73;10.57;;;;;;;28.88;49.09;101471.94;5005692;28;20038;-77
2021/07/20 11:04:52;;;;;;;14.43;10.50;;;;;;;28.92;49.18;101462.81;5004126;28;20078;-76
2021/07/20 11:07:22;;;;;;;14.90;10.00;;;;;;;28.92;47.63;101471.09;4999875;28;20041;-77
2021/07/20 11:09:50;;;;;;;16.65;11.02;;;;;;;28.81;48.10;101466.69;5007044;28;20033;-75
2021/07/20 11:12:15;;;;;;;18.80;10.50;;;;;;;28.91;48.41;101463.06;4999937;28;20060;-76
2021/07/20 11:14:45;;;;;;;13.30;10.00;;;;;;;28.99;47.66;101465.25;5005044;28;20182;-77
2021/07/20 11:17:12;;;;;;;12.68;9.63;;;;;;;29.08;46.86;101465.50;5005304;28;20030;-76
2021/07/20 11:19:37;;;;;;;13.57;8.90;;;;;;;29.04;45.75;101456.09;5006025;28;20126;-76
2021/07/20 11:22:03;;;;;;;14.57;9.13;;;;;;;28.90;45.04;101470.56;5000075;28;20176;-76
2021/07/20 11:24:29;;;;;;;13.20;9.55;;;;;;;28.56;45.30;101450.16;4999785;28;20121;-76
2021/07/20 11:26:57;;;;;;;13.88;9.80;;;;;;;28.65;45.52;101454.00;5002056;28;20074;-77
2021/07/20 11:29:23;;;;;;;13.85;9.75;;;;;;;28.83;45.02;101461.72;5004739;28;20472;-77
2021/07/20 11:31:53;;;;;;;15.38;9.95;;;;;;;28.96;44.63;101465.00;5006795;28;20033;-77